FVRG Airport Information

Runway Information
Airport Frequencies
Airport Navaids
Airport Weather Information & NOTAM
ADDS - METARS form results

(1646 UTC 02 December 2022)
Data provider http://aviationweather.gov/metar/data/
 
Forecast for: FVRG (HARARE/MUGABE , ZW)
Text: TAF FVRG 021600Z 0218/0324 32013KT CAVOK
Forecast period: 1800 UTC 02 December 2022 to 0000 UTC 04 December 2022
Forecast type: FROM: standard forecast or significant change
Winds: from the NW (320 degrees) at 15 MPH (13 knots; 6.7 m/s)
Visibility: 6 or more miles (10+ km)
Ceiling: unknown
Clouds: missing
Weather: NSW  (no significant weather)